sensor_id;sensor_type;location;lat;lon;timestamp;temperature;humidity
12948;DHT22;6539;49.476;8.484;2023-02-28T00:01:33;3.80;99.90
12948;DHT22;6539;49.476;8.484;2023-02-28T00:04:01;3.90;99.90
12948;DHT22;6539;49.476;8.484;2023-02-28T00:06:27;4.00;99.90
12948;DHT22;6539;49.476;8.484;2023-02-28T00:08:53;4.00;99.90
12948;DHT22;6539;49.476;8.484;2023-02-28T00:11:26;4.10;99.90
12948;DHT22;6539;49.476;8.484;2023-02-28T00:13:52;3.80;99.90
12948;DHT22;6539;49.476;8.484;2023-02-28T00:16:20;3.80;99.90
12948;DHT22;6539;49.476;8.484;2023-02-28T00:18:49;3.90;98.70
12948;DHT22;6539;49.476;8.484;2023-02-28T00:21:19;3.90;98.70
12948;DHT22;6539;49.476;8.484;2023-02-28T00:23:47;3.70;99.60
12948;DHT22;6539;49.476;8.484;2023-02-28T00:26:15;4.80;99.90
12948;DHT22;6539;49.476;8.484;2023-02-28T00:28:41;3.80;99.90
12948;DHT22;6539;49.476;8.484;2023-02-28T00:31:11;3.80;99.90
12948;DHT22;6539;49.476;8.484;2023-02-28T00:33:37;3.90;99.90
12948;DHT22;6539;49.476;8.484;2023-02-28T00:36:06;3.90;99.90
12948;DHT22;6539;49.476;8.484;2023-02-28T00:38:34;4.00;99.90
12948;DHT22;6539;49.476;8.484;2023-02-28T00:41:02;3.80;99.90
12948;DHT22;6539;49.476;8.484;2023-02-28T00:43:31;3.60;99.90
12948;DHT22;6539;49.476;8.484;2023-02-28T00:45:57;3.80;99.90
12948;DHT22;6539;49.476;8.484;2023-02-28T00:48:23;3.60;99.90
12948;DHT22;6539;49.476;8.484;2023-02-28T00:50:51;3.40;99.90
12948;DHT22;6539;49.476;8.484;2023-02-28T00:53:20;3.40;99.90
12948;DHT22;6539;49.476;8.484;2023-02-28T00:55:46;3.50;99.90
12948;DHT22;6539;49.476;8.484;2023-02-28T01:00:42;3.60;99.90
12948;DHT22;6539;49.476;8.484;2023-02-28T01:03:10;3.60;99.90
12948;DHT22;6539;49.476;8.484;2023-02-28T01:05:36;3.40;99.90
12948;DHT22;6539;49.476;8.484;2023-02-28T01:08:04;3.30;99.90
12948;DHT22;6539;49.476;8.484;2023-02-28T01:10:30;3.50;99.90
12948;DHT22;6539;49.476;8.484;2023-02-28T01:12:59;3.20;99.90
12948;DHT22;6539;49.476;8.484;2023-02-28T01:15:24;3.60;99.90
12948;DHT22;6539;49.476;8.484;2023-02-28T01:17:52;3.40;99.90
12948;DHT22;6539;49.476;8.484;2023-02-28T01:20:18;3.40;99.90
12948;DHT22;6539;49.476;8.484;2023-02-28T01:22:44;3.30;99.90
12948;DHT22;6539;49.476;8.484;2023-02-28T01:25:12;3.50;99.90
12948;DHT22;6539;49.476;8.484;2023-02-28T01:27:41;3.40;99.90
12948;DHT22;6539;49.476;8.484;2023-02-28T01:30:10;3.40;99.90
12948;DHT22;6539;49.476;8.484;2023-02-28T01:32:36;3.60;99.90
12948;DHT22;6539;49.476;8.484;2023-02-28T01:35:02;3.30;99.90
12948;DHT22;6539;49.476;8.484;2023-02-28T01:37:28;3.50;99.90
12948;DHT22;6539;49.476;8.484;2023-02-28T01:39:56;3.30;99.90
12948;DHT22;6539;49.476;8.484;2023-02-28T01:48:03;3.50;99.90
12948;DHT22;6539;49.476;8.484;2023-02-28T01:50:38;3.40;99.90
12948;DHT22;6539;49.476;8.484;2023-02-28T01:53:08;3.50;99.90
12948;DHT22;6539;49.476;8.484;2023-02-28T01:55:40;3.30;99.90
12948;DHT22;6539;49.476;8.484;2023-02-28T01:58:14;3.30;99.90
12948;DHT22;6539;49.476;8.484;2023-02-28T02:00:43;3.40;99.90
12948;DHT22;6539;49.476;8.484;2023-02-28T02:03:16;3.20;99.90
12948;DHT22;6539;49.476;8.484;2023-02-28T02:05:45;3.10;99.90
12948;DHT22;6539;49.476;8.484;2023-02-28T02:08:17;3.30;99.90
12948;DHT22;6539;49.476;8.484;2023-02-28T02:10:58;4.10;99.90
12948;DHT22;6539;49.476;8.484;2023-02-28T02:16:28;2.90;99.90
12948;DHT22;6539;49.476;8.484;2023-02-28T02:28:22;2.90;99.90
12948;DHT22;6539;49.476;8.484;2023-02-28T02:34:07;3.00;99.90
12948;DHT22;6539;49.476;8.484;2023-02-28T02:43:22;2.90;99.90
12948;DHT22;6539;49.476;8.484;2023-02-28T02:46:23;2.80;99.90
12948;DHT22;6539;49.476;8.484;2023-02-28T02:49:00;2.90;99.90
12948;DHT22;6539;49.476;8.484;2023-02-28T02:51:36;2.60;99.90
12948;DHT22;6539;49.476;8.484;2023-02-28T02:54:13;3.00;99.90
12948;DHT22;6539;49.476;8.484;2023-02-28T02:56:47;2.50;99.90
12948;DHT22;6539;49.476;8.484;2023-02-28T02:59:20;2.80;99.90
12948;DHT22;6539;49.476;8.484;2023-02-28T03:01:55;2.80;99.90
12948;DHT22;6539;49.476;8.484;2023-02-28T03:04:32;2.90;99.90
12948;DHT22;6539;49.476;8.484;2023-02-28T03:07:02;2.90;99.90
12948;DHT22;6539;49.476;8.484;2023-02-28T03:09:28;2.90;99.90
12948;DHT22;6539;49.476;8.484;2023-02-28T03:11:57;3.00;99.90
12948;DHT22;6539;49.476;8.484;2023-02-28T03:14:44;2.90;99.90
12948;DHT22;6539;49.476;8.484;2023-02-28T03:23:33;2.80;99.90
12948;DHT22;6539;49.476;8.484;2023-02-28T03:26:19;2.90;99.90
12948;DHT22;6539;49.476;8.484;2023-02-28T03:29:15;2.80;99.90
12948;DHT22;6539;49.476;8.484;2023-02-28T03:34:33;2.80;99.90
12948;DHT22;6539;49.476;8.484;2023-02-28T03:37:10;2.80;99.90
12948;DHT22;6539;49.476;8.484;2023-02-28T03:39:49;2.90;99.90
12948;DHT22;6539;49.476;8.484;2023-02-28T03:42:24;2.50;99.90
12948;DHT22;6539;49.476;8.484;2023-02-28T03:45:04;2.60;99.90
12948;DHT22;6539;49.476;8.484;2023-02-28T03:47:41;2.60;99.90
12948;DHT22;6539;49.476;8.484;2023-02-28T03:50:27;2.80;99.90
12948;DHT22;6539;49.476;8.484;2023-02-28T03:53:19;2.40;99.90
12948;DHT22;6539;49.476;8.484;2023-02-28T03:55:54;2.80;99.90
12948;DHT22;6539;49.476;8.484;2023-02-28T04:00:59;2.80;99.90
12948;DHT22;6539;49.476;8.484;2023-02-28T04:03:37;2.80;99.90
12948;DHT22;6539;49.476;8.484;2023-02-28T04:06:06;2.70;99.90
12948;DHT22;6539;49.476;8.484;2023-02-28T04:08:38;2.60;99.90
12948;DHT22;6539;49.476;8.484;2023-02-28T04:11:08;2.50;99.90
12948;DHT22;6539;49.476;8.484;2023-02-28T04:13:45;2.40;99.90
12948;DHT22;6539;49.476;8.484;2023-02-28T04:16:13;2.80;99.90
12948;DHT22;6539;49.476;8.484;2023-02-28T04:18:39;2.50;99.90
12948;DHT22;6539;49.476;8.484;2023-02-28T04:21:06;2.40;99.90
12948;DHT22;6539;49.476;8.484;2023-02-28T04:23:34;2.40;99.90
12948;DHT22;6539;49.476;8.484;2023-02-28T04:26:00;2.70;99.90
12948;DHT22;6539;49.476;8.484;2023-02-28T04:28:29;2.80;99.90
12948;DHT22;6539;49.476;8.484;2023-02-28T04:30:58;2.70;99.90
12948;DHT22;6539;49.476;8.484;2023-02-28T04:33:29;2.70;99.90
12948;DHT22;6539;49.476;8.484;2023-02-28T04:36:07;2.40;99.90
12948;DHT22;6539;49.476;8.484;2023-02-28T04:38:38;2.60;99.90
12948;DHT22;6539;49.476;8.484;2023-02-28T04:41:06;2.50;99.90
12948;DHT22;6539;49.476;8.484;2023-02-28T04:43:32;2.50;99.90
12948;DHT22;6539;49.476;8.484;2023-02-28T04:46:02;2.60;99.90
12948;DHT22;6539;49.476;8.484;2023-02-28T04:48:36;2.30;99.90
12948;DHT22;6539;49.476;8.484;2023-02-28T04:51:04;2.40;99.90
12948;DHT22;6539;49.476;8.484;2023-02-28T04:58:25;2.40;99.90
12948;DHT22;6539;49.476;8.484;2023-02-28T05:01:01;2.40;99.90
12948;DHT22;6539;49.476;8.484;2023-02-28T05:03:39;2.30;99.90
12948;DHT22;6539;49.476;8.484;2023-02-28T05:06:09;2.60;99.90
12948;DHT22;6539;49.476;8.484;2023-02-28T05:08:36;2.30;99.90
12948;DHT22;6539;49.476;8.484;2023-02-28T05:11:02;2.30;99.90
12948;DHT22;6539;49.476;8.484;2023-02-28T05:13:29;2.50;99.90
12948;DHT22;6539;49.476;8.484;2023-02-28T05:15:55;2.40;99.90
12948;DHT22;6539;49.476;8.484;2023-02-28T05:18:21;2.60;99.90
12948;DHT22;6539;49.476;8.484;2023-02-28T05:20:49;2.60;99.90
12948;DHT22;6539;49.476;8.484;2023-02-28T05:23:19;2.30;99.90
12948;DHT22;6539;49.476;8.484;2023-02-28T05:25:48;2.50;99.90
12948;DHT22;6539;49.476;8.484;2023-02-28T05:28:16;2.60;99.90
12948;DHT22;6539;49.476;8.484;2023-02-28T05:30:44;2.60;99.90
12948;DHT22;6539;49.476;8.484;2023-02-28T05:33:13;2.60;99.90
12948;DHT22;6539;49.476;8.484;2023-02-28T05:35:41;2.40;99.90
12948;DHT22;6539;49.476;8.484;2023-02-28T05:38:08;2.30;99.90
12948;DHT22;6539;49.476;8.484;2023-02-28T05:40:38;2.50;99.90
12948;DHT22;6539;49.476;8.484;2023-02-28T05:43:10;2.40;99.90
12948;DHT22;6539;49.476;8.484;2023-02-28T05:45:37;2.40;99.90
12948;DHT22;6539;49.476;8.484;2023-02-28T05:48:03;2.70;99.90
12948;DHT22;6539;49.476;8.484;2023-02-28T05:52:55;2.60;99.90
12948;DHT22;6539;49.476;8.484;2023-02-28T05:55:21;2.60;99.90
12948;DHT22;6539;49.476;8.484;2023-02-28T05:57:47;2.50;99.90
12948;DHT22;6539;49.476;8.484;2023-02-28T06:00:25;2.50;99.90
12948;DHT22;6539;49.476;8.484;2023-02-28T06:02:51;2.70;99.90
12948;DHT22;6539;49.476;8.484;2023-02-28T06:05:24;2.30;99.90
12948;DHT22;6539;49.476;8.484;2023-02-28T06:07:52;2.60;99.90
12948;DHT22;6539;49.476;8.484;2023-02-28T06:10:18;2.80;99.90
12948;DHT22;6539;49.476;8.484;2023-02-28T06:12:45;2.40;99.90
12948;DHT22;6539;49.476;8.484;2023-02-28T06:15:14;2.80;99.90
12948;DHT22;6539;49.476;8.484;2023-02-28T06:17:44;2.40;99.90
12948;DHT22;6539;49.476;8.484;2023-02-28T06:20:11;2.60;99.90
12948;DHT22;6539;49.476;8.484;2023-02-28T06:22:39;2.50;99.90
12948;DHT22;6539;49.476;8.484;2023-02-28T06:25:06;2.50;99.90
12948;DHT22;6539;49.476;8.484;2023-02-28T06:27:33;2.50;99.90
12948;DHT22;6539;49.476;8.484;2023-02-28T06:30:01;2.60;99.90
12948;DHT22;6539;49.476;8.484;2023-02-28T06:32:27;2.40;99.90
12948;DHT22;6539;49.476;8.484;2023-02-28T06:34:53;2.40;99.90
12948;DHT22;6539;49.476;8.484;2023-02-28T06:37:23;2.70;99.90
12948;DHT22;6539;49.476;8.484;2023-02-28T06:39:54;2.40;99.90
12948;DHT22;6539;49.476;8.484;2023-02-28T06:42:22;2.80;99.90
12948;DHT22;6539;49.476;8.484;2023-02-28T06:44:55;2.70;99.90
12948;DHT22;6539;49.476;8.484;2023-02-28T06:47:23;2.60;99.90
12948;DHT22;6539;49.476;8.484;2023-02-28T06:49:50;2.70;99.90
12948;DHT22;6539;49.476;8.484;2023-02-28T06:52:16;2.60;99.90
12948;DHT22;6539;49.476;8.484;2023-02-28T06:54:46;2.70;99.90
12948;DHT22;6539;49.476;8.484;2023-02-28T06:57:12;2.80;99.90
12948;DHT22;6539;49.476;8.484;2023-02-28T06:59:40;3.10;99.90
12948;DHT22;6539;49.476;8.484;2023-02-28T07:02:09;2.80;99.90
12948;DHT22;6539;49.476;8.484;2023-02-28T07:04:40;2.80;99.90
12948;DHT22;6539;49.476;8.484;2023-02-28T07:07:12;2.70;99.90
12948;DHT22;6539;49.476;8.484;2023-02-28T07:09:37;2.90;99.90
12948;DHT22;6539;49.476;8.484;2023-02-28T07:12:03;2.90;99.90
12948;DHT22;6539;49.476;8.484;2023-02-28T07:14:31;2.80;99.90
12948;DHT22;6539;49.476;8.484;2023-02-28T07:16:59;3.20;99.90
12948;DHT22;6539;49.476;8.484;2023-02-28T07:19:30;3.00;99.90
12948;DHT22;6539;49.476;8.484;2023-02-28T07:21:55;3.50;99.90
12948;DHT22;6539;49.476;8.484;2023-02-28T07:24:21;3.30;99.90
12948;DHT22;6539;49.476;8.484;2023-02-28T07:26:49;3.10;99.90
12948;DHT22;6539;49.476;8.484;2023-02-28T07:29:22;3.10;99.90
12948;DHT22;6539;49.476;8.484;2023-02-28T07:34:18;3.10;99.90
12948;DHT22;6539;49.476;8.484;2023-02-28T07:36:47;3.30;99.90
12948;DHT22;6539;49.476;8.484;2023-02-28T07:44:11;4.10;99.90
12948;DHT22;6539;49.476;8.484;2023-02-28T07:46:39;4.50;99.90
12948;DHT22;6539;49.476;8.484;2023-02-28T07:49:05;4.80;99.90
12948;DHT22;6539;49.476;8.484;2023-02-28T07:51:31;5.00;99.90
12948;DHT22;6539;49.476;8.484;2023-02-28T07:53:57;5.00;99.90
12948;DHT22;6539;49.476;8.484;2023-02-28T07:56:23;4.70;99.90
12948;DHT22;6539;49.476;8.484;2023-02-28T07:58:49;4.70;99.90
12948;DHT22;6539;49.476;8.484;2023-02-28T08:03:43;4.80;99.90
12948;DHT22;6539;49.476;8.484;2023-02-28T08:06:19;4.70;99.90
12948;DHT22;6539;49.476;8.484;2023-02-28T08:08:47;4.50;99.90
12948;DHT22;6539;49.476;8.484;2023-02-28T08:11:14;4.50;99.90
12948;DHT22;6539;49.476;8.484;2023-02-28T08:13:44;4.70;99.90
12948;DHT22;6539;49.476;8.484;2023-02-28T08:16:14;4.70;99.90
12948;DHT22;6539;49.476;8.484;2023-02-28T08:18:42;5.20;99.90
12948;DHT22;6539;49.476;8.484;2023-02-28T08:21:10;5.20;99.90
12948;DHT22;6539;49.476;8.484;2023-02-28T08:23:36;5.20;99.90
12948;DHT22;6539;49.476;8.484;2023-02-28T08:26:05;5.50;99.90
12948;DHT22;6539;49.476;8.484;2023-02-28T08:28:33;6.00;99.90
12948;DHT22;6539;49.476;8.484;2023-02-28T08:30:59;6.70;99.90
12948;DHT22;6539;49.476;8.484;2023-02-28T08:33:31;7.40;99.90
12948;DHT22;6539;49.476;8.484;2023-02-28T08:35:56;7.60;99.90
12948;DHT22;6539;49.476;8.484;2023-02-28T08:38:23;7.90;99.90
12948;DHT22;6539;49.476;8.484;2023-02-28T08:40:49;8.70;97.40
12948;DHT22;6539;49.476;8.484;2023-02-28T08:43:21;8.90;96.90
12948;DHT22;6539;49.476;8.484;2023-02-28T08:45:47;9.10;95.90
12948;DHT22;6539;49.476;8.484;2023-02-28T08:48:19;9.40;94.60
12948;DHT22;6539;49.476;8.484;2023-02-28T08:50:58;9.60;94.40
12948;DHT22;6539;49.476;8.484;2023-02-28T08:53:32;9.70;93.30
12948;DHT22;6539;49.476;8.484;2023-02-28T08:56:10;9.90;93.30
12948;DHT22;6539;49.476;8.484;2023-02-28T08:58:40;10.40;91.50
12948;DHT22;6539;49.476;8.484;2023-02-28T09:01:28;10.80;88.70
12948;DHT22;6539;49.476;8.484;2023-02-28T09:03:58;10.70;88.00
12948;DHT22;6539;49.476;8.484;2023-02-28T09:06:28;10.80;88.20
12948;DHT22;6539;49.476;8.484;2023-02-28T09:08:59;10.90;86.70
12948;DHT22;6539;49.476;8.484;2023-02-28T09:11:27;11.60;81.30
12948;DHT22;6539;49.476;8.484;2023-02-28T09:13:53;11.80;78.60
12948;DHT22;6539;49.476;8.484;2023-02-28T09:16:23;12.10;77.60
12948;DHT22;6539;49.476;8.484;2023-02-28T09:18:49;12.10;77.60
12948;DHT22;6539;49.476;8.484;2023-02-28T09:21:18;11.80;77.20
12948;DHT22;6539;49.476;8.484;2023-02-28T09:23:51;11.80;78.50
12948;DHT22;6539;49.476;8.484;2023-02-28T09:28:49;11.60;77.50
12948;DHT22;6539;49.476;8.484;2023-02-28T09:31:21;11.90;71.90
12948;DHT22;6539;49.476;8.484;2023-02-28T09:33:51;12.00;74.20
12948;DHT22;6539;49.476;8.484;2023-02-28T09:36:19;11.90;71.00
12948;DHT22;6539;49.476;8.484;2023-02-28T09:38:48;11.70;75.00
12948;DHT22;6539;49.476;8.484;2023-02-28T09:41:22;11.70;74.00
12948;DHT22;6539;49.476;8.484;2023-02-28T09:43:59;11.90;70.50
12948;DHT22;6539;49.476;8.484;2023-02-28T09:49:36;12.10;67.30
12948;DHT22;6539;49.476;8.484;2023-02-28T09:52:15;12.10;70.20
12948;DHT22;6539;49.476;8.484;2023-02-28T09:54:46;12.70;69.10
12948;DHT22;6539;49.476;8.484;2023-02-28T09:57:33;12.20;68.60
12948;DHT22;6539;49.476;8.484;2023-02-28T10:05:41;12.20;67.80
12948;DHT22;6539;49.476;8.484;2023-02-28T10:08:17;12.50;68.60
12948;DHT22;6539;49.476;8.484;2023-02-28T10:11:16;12.30;64.50
12948;DHT22;6539;49.476;8.484;2023-02-28T10:22:34;12.20;67.70
12948;DHT22;6539;49.476;8.484;2023-02-28T10:25:23;12.00;66.90
12948;DHT22;6539;49.476;8.484;2023-02-28T10:30:43;11.10;67.60
12948;DHT22;6539;49.476;8.484;2023-02-28T10:33:24;11.10;67.10
12948;DHT22;6539;49.476;8.484;2023-02-28T10:35:56;10.50;68.40
12948;DHT22;6539;49.476;8.484;2023-02-28T10:38:33;10.40;70.60
12948;DHT22;6539;49.476;8.484;2023-02-28T10:41:09;10.30;66.30
12948;DHT22;6539;49.476;8.484;2023-02-28T10:43:37;10.60;69.50
12948;DHT22;6539;49.476;8.484;2023-02-28T10:46:14;10.20;69.70
12948;DHT22;6539;49.476;8.484;2023-02-28T10:49:01;10.40;66.10
12948;DHT22;6539;49.476;8.484;2023-02-28T10:51:40;10.00;70.20
12948;DHT22;6539;49.476;8.484;2023-02-28T10:54:16;9.70;72.50
12948;DHT22;6539;49.476;8.484;2023-02-28T10:59:41;10.20;71.80
12948;DHT22;6539;49.476;8.484;2023-02-28T11:02:34;10.60;70.30
12948;DHT22;6539;49.476;8.484;2023-02-28T11:05:27;11.30;69.10
12948;DHT22;6539;49.476;8.484;2023-02-28T11:08:10;11.50;68.40
12948;DHT22;6539;49.476;8.484;2023-02-28T11:10:48;11.50;62.20
12948;DHT22;6539;49.476;8.484;2023-02-28T11:13:21;11.20;67.60
12948;DHT22;6539;49.476;8.484;2023-02-28T11:16:04;11.00;68.00
12948;DHT22;6539;49.476;8.484;2023-02-28T11:21:29;11.00;67.60
12948;DHT22;6539;49.476;8.484;2023-02-28T11:24:02;11.40;67.90
12948;DHT22;6539;49.476;8.484;2023-02-28T11:26:37;11.50;63.00
12948;DHT22;6539;49.476;8.484;2023-02-28T11:29:18;11.90;66.80
12948;DHT22;6539;49.476;8.484;2023-02-28T11:32:18;11.50;62.20
12948;DHT22;6539;49.476;8.484;2023-02-28T11:34:59;11.50;63.10
12948;DHT22;6539;49.476;8.484;2023-02-28T11:37:39;11.40;62.30
12948;DHT22;6539;49.476;8.484;2023-02-28T11:40:18;10.80;67.80
12948;DHT22;6539;49.476;8.484;2023-02-28T11:46:14;10.60;69.90
12948;DHT22;6539;49.476;8.484;2023-02-28T11:51:49;10.80;65.40
12948;DHT22;6539;49.476;8.484;2023-02-28T12:07:08;11.00;67.30
12948;DHT22;6539;49.476;8.484;2023-02-28T12:12:57;10.60;68.10
12948;DHT22;6539;49.476;8.484;2023-02-28T12:21:48;10.50;70.10
12948;DHT22;6539;49.476;8.484;2023-02-28T12:27:15;10.10;68.80
12948;DHT22;6539;49.476;8.484;2023-02-28T12:32:44;10.00;69.60
12948;DHT22;6539;49.476;8.484;2023-02-28T12:35:22;10.20;64.90
12948;DHT22;6539;49.476;8.484;2023-02-28T12:43:21;10.80;62.90
12948;DHT22;6539;49.476;8.484;2023-02-28T12:45:55;11.00;67.90
12948;DHT22;6539;49.476;8.484;2023-02-28T12:48:48;10.80;63.70
12948;DHT22;6539;49.476;8.484;2023-02-28T12:51:25;11.20;67.50
12948;DHT22;6539;49.476;8.484;2023-02-28T12:59:25;10.50;65.90
12948;DHT22;6539;49.476;8.484;2023-02-28T13:08:01;10.20;64.30
12948;DHT22;6539;49.476;8.484;2023-02-28T13:10:49;10.30;69.60
12948;DHT22;6539;49.476;8.484;2023-02-28T13:13:25;10.30;70.00
12948;DHT22;6539;49.476;8.484;2023-02-28T13:16:04;10.30;65.70
12948;DHT22;6539;49.476;8.484;2023-02-28T13:21:43;10.20;66.20
12948;DHT22;6539;49.476;8.484;2023-02-28T13:24:11;10.50;70.20
12948;DHT22;6539;49.476;8.484;2023-02-28T13:29:38;10.40;64.60
12948;DHT22;6539;49.476;8.484;2023-02-28T13:39:56;10.20;69.70
12948;DHT22;6539;49.476;8.484;2023-02-28T14:06:57;9.20;74.60
12948;DHT22;6539;49.476;8.484;2023-02-28T14:09:33;9.00;74.60
12948;DHT22;6539;49.476;8.484;2023-02-28T14:18:00;8.90;75.20
12948;DHT22;6539;49.476;8.484;2023-02-28T14:20:31;9.00;75.60
12948;DHT22;6539;49.476;8.484;2023-02-28T14:37:54;8.50;78.10
12948;DHT22;6539;49.476;8.484;2023-02-28T14:40:29;8.40;77.80
12948;DHT22;6539;49.476;8.484;2023-02-28T14:43:05;8.10;78.70
12948;DHT22;6539;49.476;8.484;2023-02-28T14:45:44;8.20;78.70
12948;DHT22;6539;49.476;8.484;2023-02-28T14:48:17;8.20;73.80
12948;DHT22;6539;49.476;8.484;2023-02-28T14:50:58;8.20;74.50
12948;DHT22;6539;49.476;8.484;2023-02-28T14:53:30;8.10;74.50
12948;DHT22;6539;49.476;8.484;2023-02-28T14:56:03;8.30;81.00
12948;DHT22;6539;49.476;8.484;2023-02-28T14:58:32;8.20;79.00
12948;DHT22;6539;49.476;8.484;2023-02-28T15:01:03;8.20;81.00
12948;DHT22;6539;49.476;8.484;2023-02-28T15:03:38;7.90;81.20
12948;DHT22;6539;49.476;8.484;2023-02-28T15:06:13;7.40;80.70
12948;DHT22;6539;49.476;8.484;2023-02-28T15:08:41;8.20;81.40
12948;DHT22;6539;49.476;8.484;2023-02-28T15:16:25;8.30;82.10
12948;DHT22;6539;49.476;8.484;2023-02-28T15:19:02;8.30;82.50
12948;DHT22;6539;49.476;8.484;2023-02-28T15:21:39;7.80;82.30
12948;DHT22;6539;49.476;8.484;2023-02-28T15:24:20;7.80;83.40
12948;DHT22;6539;49.476;8.484;2023-02-28T15:27:04;7.80;83.20
12948;DHT22;6539;49.476;8.484;2023-02-28T15:29:42;7.60;83.60
12948;DHT22;6539;49.476;8.484;2023-02-28T15:32:30;8.10;83.90
12948;DHT22;6539;49.476;8.484;2023-02-28T15:35:16;7.70;80.00
12948;DHT22;6539;49.476;8.484;2023-02-28T15:45:49;7.60;84.60
12948;DHT22;6539;49.476;8.484;2023-02-28T15:48:23;7.70;85.40
12948;DHT22;6539;49.476;8.484;2023-02-28T15:58:55;7.50;80.60
12948;DHT22;6539;49.476;8.484;2023-02-28T16:01:31;7.20;86.60
12948;DHT22;6539;49.476;8.484;2023-02-28T16:04:04;7.50;87.60
12948;DHT22;6539;49.476;8.484;2023-02-28T16:06:41;7.40;86.90
12948;DHT22;6539;49.476;8.484;2023-02-28T16:09:16;7.30;83.60
12948;DHT22;6539;49.476;8.484;2023-02-28T16:11:47;7.50;88.20
12948;DHT22;6539;49.476;8.484;2023-02-28T16:14:25;7.50;87.50
12948;DHT22;6539;49.476;8.484;2023-02-28T16:17:06;7.70;83.20
12948;DHT22;6539;49.476;8.484;2023-02-28T16:19:39;7.60;87.50
12948;DHT22;6539;49.476;8.484;2023-02-28T16:22:05;7.60;87.40
12948;DHT22;6539;49.476;8.484;2023-02-28T16:24:31;7.40;87.00
12948;DHT22;6539;49.476;8.484;2023-02-28T16:26:57;7.30;87.10
12948;DHT22;6539;49.476;8.484;2023-02-28T16:29:28;7.50;83.70
12948;DHT22;6539;49.476;8.484;2023-02-28T16:31:59;7.60;87.90
12948;DHT22;6539;49.476;8.484;2023-02-28T16:34:28;7.40;88.00
12948;DHT22;6539;49.476;8.484;2023-02-28T16:36:54;7.40;87.80
12948;DHT22;6539;49.476;8.484;2023-02-28T16:39:20;7.50;88.10
12948;DHT22;6539;49.476;8.484;2023-02-28T16:41:53;7.20;88.30
12948;DHT22;6539;49.476;8.484;2023-02-28T16:44:29;7.30;83.20
12948;DHT22;6539;49.476;8.484;2023-02-28T16:47:01;7.10;88.90
12948;DHT22;6539;49.476;8.484;2023-02-28T16:49:31;7.40;89.80
12948;DHT22;6539;49.476;8.484;2023-02-28T16:51:57;7.00;89.60
12948;DHT22;6539;49.476;8.484;2023-02-28T16:54:23;7.40;90.20
12948;DHT22;6539;49.476;8.484;2023-02-28T16:56:52;7.30;90.00
12948;DHT22;6539;49.476;8.484;2023-02-28T16:59:22;7.20;84.60
12948;DHT22;6539;49.476;8.484;2023-02-28T17:01:50;7.10;90.50
12948;DHT22;6539;49.476;8.484;2023-02-28T17:04:17;7.30;90.20
12948;DHT22;6539;49.476;8.484;2023-02-28T17:06:46;7.20;90.20
12948;DHT22;6539;49.476;8.484;2023-02-28T17:09:30;7.40;90.50
12948;DHT22;6539;49.476;8.484;2023-02-28T17:11:56;6.90;90.30
12948;DHT22;6539;49.476;8.484;2023-02-28T17:14:24;7.30;90.70
12948;DHT22;6539;49.476;8.484;2023-02-28T17:16:50;7.20;90.60
12948;DHT22;6539;49.476;8.484;2023-02-28T17:19:16;7.10;90.60
12948;DHT22;6539;49.476;8.484;2023-02-28T17:21:45;7.00;90.80
12948;DHT22;6539;49.476;8.484;2023-02-28T17:24:11;7.30;90.90
12948;DHT22;6539;49.476;8.484;2023-02-28T17:26:39;7.20;90.60
12948;DHT22;6539;49.476;8.484;2023-02-28T17:29:17;7.00;90.90
12948;DHT22;6539;49.476;8.484;2023-02-28T17:31:49;7.40;91.20
12948;DHT22;6539;49.476;8.484;2023-02-28T17:34:17;6.90;91.20
12948;DHT22;6539;49.476;8.484;2023-02-28T17:36:49;7.20;91.30
12948;DHT22;6539;49.476;8.484;2023-02-28T17:39:19;6.90;91.40
12948;DHT22;6539;49.476;8.484;2023-02-28T17:41:52;7.10;91.70
12948;DHT22;6539;49.476;8.484;2023-02-28T17:44:19;7.10;91.50
12948;DHT22;6539;49.476;8.484;2023-02-28T17:46:49;7.00;91.70
12948;DHT22;6539;49.476;8.484;2023-02-28T17:49:19;6.80;91.80
12948;DHT22;6539;49.476;8.484;2023-02-28T17:51:46;6.90;91.80
12948;DHT22;6539;49.476;8.484;2023-02-28T17:54:17;6.80;92.00
12948;DHT22;6539;49.476;8.484;2023-02-28T17:56:45;6.90;92.20
12948;DHT22;6539;49.476;8.484;2023-02-28T17:59:12;6.80;92.10
12948;DHT22;6539;49.476;8.484;2023-02-28T18:01:40;7.10;92.40
12948;DHT22;6539;49.476;8.484;2023-02-28T18:04:06;7.10;92.60
12948;DHT22;6539;49.476;8.484;2023-02-28T18:09:19;7.00;92.90
12948;DHT22;6539;49.476;8.484;2023-02-28T18:11:53;7.00;92.90
12948;DHT22;6539;49.476;8.484;2023-02-28T18:14:22;6.70;92.80
12948;DHT22;6539;49.476;8.484;2023-02-28T18:16:54;6.80;90.50
12948;DHT22;6539;49.476;8.484;2023-02-28T18:19:20;6.90;93.00
12948;DHT22;6539;49.476;8.484;2023-02-28T18:21:51;7.00;93.10
12948;DHT22;6539;49.476;8.484;2023-02-28T18:24:21;6.70;93.00
12948;DHT22;6539;49.476;8.484;2023-02-28T18:26:52;6.60;93.00
12948;DHT22;6539;49.476;8.484;2023-02-28T18:29:25;6.70;93.40
12948;DHT22;6539;49.476;8.484;2023-02-28T18:31:58;6.60;93.30
12948;DHT22;6539;49.476;8.484;2023-02-28T18:34:26;6.70;93.70
12948;DHT22;6539;49.476;8.484;2023-02-28T18:36:55;6.50;93.70
12948;DHT22;6539;49.476;8.484;2023-02-28T18:39:26;6.80;93.80
12948;DHT22;6539;49.476;8.484;2023-02-28T18:41:53;7.00;93.90
12948;DHT22;6539;49.476;8.484;2023-02-28T18:44:19;6.80;94.00
12948;DHT22;6539;49.476;8.484;2023-02-28T18:46:49;6.70;91.50
12948;DHT22;6539;49.476;8.484;2023-02-28T18:49:15;6.70;94.20
12948;DHT22;6539;49.476;8.484;2023-02-28T18:51:41;6.50;94.10
12948;DHT22;6539;49.476;8.484;2023-02-28T18:54:11;6.50;94.00
12948;DHT22;6539;49.476;8.484;2023-02-28T18:56:38;6.50;94.00
12948;DHT22;6539;49.476;8.484;2023-02-28T18:59:04;6.60;94.30
12948;DHT22;6539;49.476;8.484;2023-02-28T19:01:34;6.30;94.10
12948;DHT22;6539;49.476;8.484;2023-02-28T19:04:03;6.40;94.30
12948;DHT22;6539;49.476;8.484;2023-02-28T19:06:30;6.50;94.20
12948;DHT22;6539;49.476;8.484;2023-02-28T19:08:59;6.60;94.60
12948;DHT22;6539;49.476;8.484;2023-02-28T19:11:28;6.40;94.60
12948;DHT22;6539;49.476;8.484;2023-02-28T19:13:55;6.30;94.60
12948;DHT22;6539;49.476;8.484;2023-02-28T19:16:24;6.50;94.60
12948;DHT22;6539;49.476;8.484;2023-02-28T19:18:54;6.40;94.60
12948;DHT22;6539;49.476;8.484;2023-02-28T19:21:22;6.70;95.00
12948;DHT22;6539;49.476;8.484;2023-02-28T19:23:51;6.70;92.70
12948;DHT22;6539;49.476;8.484;2023-02-28T19:26:20;6.60;94.60
12948;DHT22;6539;49.476;8.484;2023-02-28T19:28:47;6.40;94.50
12948;DHT22;6539;49.476;8.484;2023-02-28T19:31:18;6.50;94.80
12948;DHT22;6539;49.476;8.484;2023-02-28T19:33:52;6.40;94.60
12948;DHT22;6539;49.476;8.484;2023-02-28T19:36:18;6.20;94.50
12948;DHT22;6539;49.476;8.484;2023-02-28T19:38:45;6.50;95.00
12948;DHT22;6539;49.476;8.484;2023-02-28T19:41:15;6.30;94.80
12948;DHT22;6539;49.476;8.484;2023-02-28T19:43:42;6.30;94.80
12948;DHT22;6539;49.476;8.484;2023-02-28T19:46:08;6.20;94.90
12948;DHT22;6539;49.476;8.484;2023-02-28T19:48:40;6.20;94.70
12948;DHT22;6539;49.476;8.484;2023-02-28T19:51:10;6.60;95.10
12948;DHT22;6539;49.476;8.484;2023-02-28T19:53:38;6.20;95.00
12948;DHT22;6539;49.476;8.484;2023-02-28T19:56:06;6.10;95.10
12948;DHT22;6539;49.476;8.484;2023-02-28T19:58:33;6.10;95.20
12948;DHT22;6539;49.476;8.484;2023-02-28T20:01:14;6.00;95.50
12948;DHT22;6539;49.476;8.484;2023-02-28T20:03:47;5.90;95.40
12948;DHT22;6539;49.476;8.484;2023-02-28T20:06:15;6.10;95.50
12948;DHT22;6539;49.476;8.484;2023-02-28T20:08:46;5.80;95.70